createdAt,value
2019-02-16T00:02:50.578Z,-1.23
2019-02-16T00:05:16.971Z,-1.30
2019-02-16T00:07:43.065Z,-1.31
2019-02-16T00:10:09.096Z,-1.29
2019-02-16T00:12:35.142Z,-1.25
2019-02-16T00:15:01.195Z,-1.26
2019-02-16T00:17:27.060Z,-1.37
2019-02-16T00:19:53.241Z,-1.36
2019-02-16T00:22:19.520Z,-1.22
2019-02-16T00:24:45.737Z,-1.35
2019-02-16T00:27:11.863Z,-1.53
2019-02-16T00:29:37.793Z,-1.85
2019-02-16T00:32:03.972Z,-1.80
2019-02-16T00:34:29.883Z,-1.93
2019-02-16T00:36:55.968Z,-1.62
2019-02-16T00:39:21.942Z,-1.71
2019-02-16T00:41:48.117Z,-1.68
2019-02-16T00:44:13.999Z,-1.61
2019-02-16T00:46:40.056Z,-1.54
2019-02-16T00:49:06.138Z,-1.57
2019-02-16T00:51:32.261Z,-1.48
2019-02-16T00:53:58.444Z,-1.55
2019-02-16T00:56:24.561Z,-1.52
2019-02-16T00:58:50.637Z,-1.52
2019-02-16T01:01:16.874Z,-1.62
2019-02-16T01:03:42.894Z,-1.67
2019-02-16T01:06:08.913Z,-1.69
2019-02-16T01:08:35.089Z,-1.73
2019-02-16T01:11:01.112Z,-1.67
2019-02-16T01:13:27.087Z,-1.80
2019-02-16T01:15:53.216Z,-1.93
2019-02-16T01:18:19.387Z,-1.92
2019-02-16T01:20:45.513Z,-1.93
2019-02-16T01:23:11.704Z,-1.84
2019-02-16T01:25:37.858Z,-1.94
2019-02-16T01:28:03.741Z,-1.97
2019-02-16T01:30:29.763Z,-1.97
2019-02-16T01:32:55.981Z,-1.86
2019-02-16T01:35:22.119Z,-2.03
2019-02-16T01:37:48.290Z,-2.11
2019-02-16T01:40:14.362Z,-2.09
2019-02-16T01:42:40.394Z,-2.16
2019-02-16T01:45:48.078Z,-2.02
2019-02-16T01:48:14.529Z,-2.20
2019-02-16T01:50:40.700Z,-2.20
2019-02-16T01:53:06.927Z,-2.18
2019-02-16T01:55:32.856Z,-2.07
2019-02-16T01:57:58.964Z,-2.24
2019-02-16T02:00:25.101Z,-2.23
2019-02-16T02:02:51.275Z,-2.16
2019-02-16T02:08:05.041Z,-2.40
2019-02-16T02:10:31.210Z,-2.47
2019-02-16T02:12:57.238Z,-2.46
2019-02-16T02:15:23.360Z,-2.59
2019-02-16T02:17:49.529Z,-2.50
2019-02-16T02:20:15.457Z,-2.34
2019-02-16T02:22:41.635Z,-2.37
2019-02-16T02:28:21.138Z,-2.46
2019-02-16T02:30:47.309Z,-2.48
2019-02-16T02:33:13.606Z,-2.50
2019-02-16T02:35:39.628Z,-2.42
2019-02-16T02:38:05.699Z,-2.31
2019-02-16T02:40:31.773Z,-2.35
2019-02-16T02:42:57.796Z,-2.46
2019-02-16T02:45:23.909Z,-2.49
2019-02-16T02:47:50.193Z,-2.46
2019-02-16T02:50:16.423Z,-2.48
2019-02-16T02:52:42.446Z,-2.46
2019-02-16T02:55:08.521Z,-2.39
2019-02-16T02:57:34.548Z,-2.53
2019-02-16T03:00:00.616Z,-2.53
2019-02-16T03:02:26.740Z,-2.47
2019-02-16T03:04:52.865Z,-2.44
2019-02-16T03:07:19.038Z,-2.37
2019-02-16T03:09:44.892Z,-2.36
2019-02-16T03:12:10.937Z,-2.50
2019-02-16T03:14:36.904Z,-2.66
2019-02-16T03:17:02.928Z,-2.74
2019-02-16T03:19:48.768Z,-2.80
2019-02-16T03:22:14.936Z,-2.74
2019-02-16T03:24:41.026Z,-2.77
2019-02-16T03:27:48.619Z,-2.78
2019-02-16T03:30:56.205Z,-2.78
2019-02-16T03:34:03.748Z,-2.73
2019-02-16T03:37:09.517Z,-2.78
2019-02-16T03:40:17.106Z,-2.91
2019-02-16T03:42:43.135Z,-3.00
2019-02-16T03:45:09.192Z,-3.07
2019-02-16T03:47:35.333Z,-3.03
2019-02-16T03:50:01.408Z,-3.13
2019-02-16T03:52:27.331Z,-3.11
2019-02-16T03:54:53.549Z,-3.14
2019-02-16T03:57:19.578Z,-3.11
2019-02-16T03:59:45.710Z,-3.38
2019-02-16T04:02:11.823Z,-3.46
2019-02-16T04:04:37.951Z,-3.42
2019-02-16T04:07:04.026Z,-3.32
2019-02-16T04:09:30.195Z,-3.06
2019-02-16T04:11:56.377Z,-3.02
2019-02-16T04:14:22.444Z,-3.15
2019-02-16T04:16:48.474Z,-3.14
2019-02-16T04:19:14.743Z,-3.18
2019-02-16T04:21:40.774Z,-3.24
2019-02-16T04:24:06.956Z,-3.25
2019-02-16T04:26:33.137Z,-3.38
2019-02-16T04:28:59.190Z,-3.24
2019-02-16T04:31:25.275Z,-3.49
2019-02-16T04:33:51.289Z,-3.70
2019-02-16T04:36:17.479Z,-3.75
2019-02-16T04:38:43.535Z,-3.57
2019-02-16T04:41:09.559Z,-3.54
2019-02-16T04:43:35.856Z,-3.59
2019-02-16T04:46:02.126Z,-3.47
2019-02-16T04:48:28.150Z,-3.33
2019-02-16T04:50:54.332Z,-3.22
2019-02-16T04:53:20.502Z,-3.34
2019-02-16T04:55:46.685Z,-3.24
2019-02-16T04:58:12.651Z,-3.29
2019-02-16T05:00:40.984Z,-3.42
2019-02-16T05:03:07.000Z,-3.35
2019-02-16T05:05:32.970Z,-3.37
2019-02-16T05:07:59.460Z,-3.45
2019-02-16T05:10:25.580Z,-3.52
2019-02-16T05:12:51.858Z,-3.49
2019-02-16T05:15:17.932Z,-3.43
2019-02-16T05:17:44.016Z,-3.38
2019-02-16T05:20:10.036Z,-3.46
2019-02-16T05:22:44.170Z,-3.60
2019-02-16T05:25:04.122Z,-3.63
2019-02-16T05:27:30.400Z,-3.67
2019-02-16T05:29:56.637Z,-3.67
2019-02-16T05:32:22.729Z,-3.63
2019-02-16T05:34:48.682Z,-3.68
2019-02-16T05:37:14.798Z,-3.75
2019-02-16T05:39:40.965Z,-3.87
2019-02-16T05:42:07.066Z,-3.69
2019-02-16T05:44:33.170Z,-3.75
2019-02-16T05:46:59.100Z,-3.79
2019-02-16T05:49:25.169Z,-3.78
2019-02-16T05:51:51.341Z,-3.79
2019-02-16T05:54:17.373Z,-3.87
2019-02-16T05:56:43.538Z,-3.87
2019-02-16T05:59:09.630Z,-3.92
2019-02-16T06:01:35.785Z,-4.24
2019-02-16T06:04:01.921Z,-4.15
2019-02-16T06:06:28.149Z,-4.00
2019-02-16T06:08:54.339Z,-3.84
2019-02-16T06:11:20.461Z,-3.93
2019-02-16T06:13:46.525Z,-4.05
2019-02-16T06:16:12.652Z,-3.97
2019-02-16T06:18:38.778Z,-4.01
2019-02-16T06:21:04.846Z,-3.96
2019-02-16T06:23:30.824Z,-3.93
2019-02-16T06:25:57.151Z,-4.16
2019-02-16T06:28:23.164Z,-4.26
2019-02-16T06:30:49.345Z,-4.25
2019-02-16T06:33:15.629Z,-4.21
2019-02-16T06:38:19.288Z,-4.13
2019-02-16T06:40:45.270Z,-4.11
2019-02-16T06:43:11.440Z,-4.04
2019-02-16T06:45:37.665Z,-4.03
2019-02-16T06:48:03.793Z,-3.99
2019-02-16T06:50:36.724Z,-3.93
2019-02-16T06:52:57.984Z,-3.84
2019-02-16T06:58:11.854Z,-3.76
2019-02-16T07:00:37.831Z,-3.75
2019-02-16T07:03:03.902Z,-3.70
2019-02-16T07:05:30.033Z,-3.70
2019-02-16T07:07:56.047Z,-3.65
2019-02-16T07:10:22.167Z,-3.62
2019-02-16T07:12:48.190Z,-3.59
2019-02-16T07:15:14.269Z,-3.58
2019-02-16T07:18:00.154Z,-3.48
2019-02-16T07:20:26.191Z,-3.33
2019-02-16T07:22:52.354Z,-3.44
2019-02-16T07:25:18.595Z,-3.39
2019-02-16T07:27:44.823Z,-3.25
2019-02-16T07:30:11.045Z,-3.32
2019-02-16T07:32:37.071Z,-3.16
2019-02-16T07:35:22.987Z,-3.11
2019-02-16T07:37:49.057Z,-3.11
2019-02-16T07:40:15.163Z,-3.10
2019-02-16T07:43:01.209Z,-3.10
2019-02-16T07:45:47.191Z,-2.69
2019-02-16T07:48:32.965Z,-2.74
2019-02-16T07:51:18.814Z,-2.80
2019-02-16T07:54:04.615Z,-2.94
2019-02-16T08:04:45.728Z,-2.85
2019-02-16T08:12:52.855Z,-2.56
2019-02-16T08:18:16.439Z,-2.36
2019-02-16T08:21:02.223Z,-2.29
2019-02-16T08:23:48.127Z,-2.15
2019-02-16T08:26:34.062Z,-2.04
2019-02-16T08:29:19.842Z,-1.85
2019-02-16T08:32:05.775Z,-1.77
2019-02-16T08:34:51.576Z,-1.64
2019-02-16T08:37:37.564Z,-1.53
2019-02-16T08:40:45.161Z,-1.34
2019-02-16T08:43:31.120Z,-1.10
2019-02-16T08:46:17.050Z,-0.65
2019-02-16T08:51:50.488Z,-0.37
2019-02-16T08:54:36.401Z,-0.04
2019-02-16T08:57:22.381Z,0.15
2019-02-16T09:00:08.483Z,0.31
2019-02-16T09:02:54.579Z,0.42
2019-02-16T09:08:28.097Z,0.80
2019-02-16T09:11:14.094Z,0.88
2019-02-16T09:14:00.078Z,1.07
2019-02-16T09:19:33.443Z,1.43
2019-02-16T09:22:19.487Z,1.38
2019-02-16T09:27:42.866Z,1.60
2019-02-16T09:30:50.475Z,1.70
2019-02-16T09:33:36.357Z,1.99
2019-02-16T09:36:22.241Z,1.94
2019-02-16T09:39:08.204Z,1.92
2019-02-16T09:47:15.542Z,2.44
2019-02-16T09:50:01.554Z,2.52
2019-02-16T09:52:47.438Z,2.81
2019-02-16T09:55:33.437Z,2.91
2019-02-16T09:58:19.410Z,2.92
2019-02-16T10:01:05.417Z,3.01
2019-02-16T10:06:39.340Z,3.10
2019-02-16T10:12:13.010Z,3.47
2019-02-16T10:14:59.157Z,3.52
2019-02-16T10:17:45.141Z,3.80
2019-02-16T10:20:31.147Z,3.95
2019-02-16T10:26:04.560Z,4.53
2019-02-16T10:28:50.538Z,4.53
2019-02-16T10:31:36.596Z,4.68
2019-02-16T10:34:22.685Z,4.77
2019-02-16T10:37:08.677Z,4.73
2019-02-16T10:42:42.049Z,5.14
2019-02-16T10:45:48.054Z,5.44
2019-02-16T10:48:34.042Z,5.44
2019-02-16T10:51:20.036Z,5.41
2019-02-16T10:54:06.029Z,5.68
2019-02-16T10:56:52.483Z,5.68
2019-02-16T10:59:58.357Z,6.26
2019-02-16T11:02:44.221Z,6.26
2019-02-16T11:05:30.011Z,6.13
2019-02-16T11:13:43.584Z,6.23
2019-02-16T11:16:49.439Z,6.23
2019-02-16T11:19:35.376Z,6.63
2019-02-16T11:22:34.929Z,6.55
2019-02-16T11:28:27.455Z,6.48
2019-02-16T11:31:26.857Z,6.66
2019-02-16T11:34:12.850Z,6.66
2019-02-16T11:39:46.337Z,7.03
2019-02-16T11:42:32.305Z,7.23
2019-02-16T11:45:18.350Z,7.45
2019-02-16T11:48:04.295Z,7.69
2019-02-16T11:51:10.044Z,7.81
2019-02-16T11:54:15.896Z,8.00
2019-02-16T11:59:49.495Z,7.95
2019-02-16T12:02:39.621Z,7.95
2019-02-16T12:05:44.593Z,8.09
2019-02-16T12:11:17.661Z,8.25
2019-02-16T12:14:23.249Z,8.84
2019-02-16T12:17:28.890Z,9.41
2019-02-16T12:20:12.611Z,10.03
2019-02-16T12:23:12.036Z,10.61
2019-02-16T12:26:11.107Z,11.02
2019-02-16T12:32:03.697Z,11.37
2019-02-16T12:35:09.305Z,11.90
2019-02-16T12:45:36.876Z,13.13
2019-02-16T12:50:59.715Z,13.87
2019-02-16T12:54:05.324Z,14.08
2019-02-16T12:56:51.056Z,14.08
2019-02-16T12:59:36.773Z,14.41
2019-02-16T13:02:24.613Z,14.45
2019-02-16T13:05:10.099Z,14.72
2019-02-16T13:18:11.036Z,15.70
2019-02-16T13:28:55.559Z,15.32
2019-02-16T13:31:41.254Z,15.52
2019-02-16T13:34:26.999Z,15.15
2019-02-16T13:37:12.720Z,15.08
2019-02-16T13:39:58.471Z,14.99
2019-02-16T13:42:44.188Z,14.84
2019-02-16T13:45:29.904Z,15.17
2019-02-16T13:48:15.622Z,14.79
2019-02-16T13:58:47.225Z,16.13
2019-02-16T14:04:40.166Z,16.59
2019-02-16T14:07:25.912Z,16.33
2019-02-16T14:12:49.500Z,15.96
2019-02-16T14:17:49.354Z,16.45
2019-02-16T14:20:15.223Z,16.09
2019-02-16T14:22:41.064Z,16.31
2019-02-16T14:27:52.513Z,15.99
2019-02-16T14:30:18.361Z,15.95
2019-02-16T14:32:44.189Z,16.26
2019-02-16T14:35:10.012Z,16.88
2019-02-16T14:37:55.740Z,16.96
2019-02-16T14:42:55.453Z,17.01
2019-02-16T14:45:21.289Z,17.35
2019-02-16T14:47:47.145Z,17.73
2019-02-16T14:50:12.973Z,17.75
2019-02-16T14:52:38.834Z,17.21
2019-02-16T14:57:55.321Z,16.17
2019-02-16T15:00:21.155Z,16.54
2019-02-16T15:02:46.989Z,16.75
2019-02-16T15:05:12.819Z,16.10
2019-02-16T15:07:38.646Z,16.70
2019-02-16T15:10:24.333Z,16.53
2019-02-16T15:12:50.174Z,16.60
2019-02-16T15:15:16.003Z,16.27
2019-02-16T15:17:41.896Z,16.36
2019-02-16T15:20:49.376Z,16.25
2019-02-16T15:23:15.224Z,16.68
2019-02-16T15:25:41.060Z,16.78
2019-02-16T15:28:06.900Z,16.55
2019-02-16T15:30:32.727Z,15.92
2019-02-16T15:32:58.567Z,15.93
2019-02-16T15:35:24.403Z,16.23
2019-02-16T15:37:50.220Z,15.91
2019-02-16T15:40:16.197Z,15.48
2019-02-16T15:42:42.041Z,15.57
2019-02-16T15:48:02.284Z,15.99
2019-02-16T15:50:28.146Z,14.99
2019-02-16T15:53:07.756Z,14.23
2019-02-16T15:55:33.595Z,13.41
2019-02-16T15:57:59.456Z,12.59
2019-02-16T16:03:03.331Z,11.70
2019-02-16T16:05:29.224Z,11.65
2019-02-16T16:08:14.885Z,11.53
2019-02-16T16:16:08.513Z,10.73
2019-02-16T16:18:54.220Z,10.62
2019-02-16T16:29:28.077Z,9.82
2019-02-16T16:32:13.997Z,9.58
2019-02-16T16:34:59.706Z,9.30
2019-02-16T16:40:39.382Z,8.85
2019-02-16T16:43:25.099Z,8.43
2019-02-16T16:51:51.905Z,7.59
2019-02-16T16:54:37.632Z,7.57
2019-02-16T17:02:47.941Z,7.23
2019-02-16T17:05:34.024Z,7.11
2019-02-16T17:08:39.753Z,6.87
2019-02-16T17:11:25.864Z,6.87
2019-02-16T17:14:11.710Z,6.70
2019-02-16T17:17:17.340Z,6.50
2019-02-16T17:20:24.839Z,6.34
2019-02-16T17:23:10.557Z,6.34
2019-02-16T17:25:56.430Z,5.88
2019-02-16T17:28:42.315Z,5.75
2019-02-16T17:34:35.455Z,5.61
2019-02-16T17:37:21.189Z,5.52
2019-02-16T17:40:26.951Z,5.16
2019-02-16T17:43:32.562Z,5.03
2019-02-16T17:46:18.635Z,5.03
2019-02-16T17:49:04.518Z,4.88
2019-02-16T17:52:10.213Z,4.65
2019-02-16T17:54:56.045Z,4.65
2019-02-16T17:57:41.843Z,4.62
2019-02-16T18:00:49.301Z,4.56
2019-02-16T18:03:54.908Z,4.39
2019-02-16T18:07:00.538Z,4.29
2019-02-16T18:12:40.196Z,4.28
2019-02-16T18:15:47.656Z,4.03
2019-02-16T18:18:33.414Z,4.00
2019-02-16T18:21:19.153Z,3.81
2019-02-16T18:26:56.521Z,3.29
2019-02-16T18:29:39.949Z,3.38
2019-02-16T18:32:31.289Z,3.33
2019-02-16T18:35:13.546Z,3.34
2019-02-16T18:43:07.627Z,3.12
2019-02-16T18:45:53.703Z,3.13
2019-02-16T18:51:26.998Z,2.83
2019-02-16T18:54:12.777Z,2.87
2019-02-16T18:59:32.138Z,2.63
2019-02-16T19:07:33.532Z,2.40
2019-02-16T19:10:19.232Z,2.30
2019-02-16T19:13:04.952Z,2.40
2019-02-16T19:15:50.646Z,2.40
2019-02-16T19:18:56.357Z,2.46
2019-02-16T19:27:23.653Z,2.17
2019-02-16T19:30:09.382Z,2.02
2019-02-16T19:32:55.223Z,1.90
2019-02-16T19:35:40.948Z,1.99
2019-02-16T19:38:27.017Z,1.58
2019-02-16T19:41:12.962Z,1.65
2019-02-16T19:46:36.353Z,1.59
2019-02-16T19:57:07.429Z,1.17
2019-02-16T19:59:53.240Z,1.33
2019-02-16T20:02:38.964Z,1.28
2019-02-16T20:05:46.475Z,1.21
2019-02-16T20:08:32.336Z,1.25
2019-02-16T20:13:56.029Z,1.26
2019-02-16T20:19:18.983Z,1.16
2019-02-16T20:24:42.618Z,1.05
2019-02-16T20:27:36.967Z,1.12
2019-02-16T20:30:16.204Z,1.15
2019-02-16T20:33:02.183Z,1.17
2019-02-16T20:35:48.005Z,0.92
2019-02-16T20:38:33.828Z,0.82
2019-02-16T20:41:19.666Z,0.89
2019-02-16T20:44:05.403Z,0.84
2019-02-16T20:46:51.120Z,0.87
2019-02-16T20:52:25.043Z,0.58
2019-02-16T20:55:10.965Z,0.52
2019-02-16T20:57:56.767Z,0.65
2019-02-16T21:00:42.490Z,0.72
2019-02-16T21:06:06.376Z,0.16
2019-02-16T21:08:52.142Z,-0.12
2019-02-16T21:14:25.413Z,0.25
2019-02-16T21:17:11.291Z,0.07
2019-02-16T21:19:57.032Z,0.01
2019-02-16T21:22:42.932Z,0.05
2019-02-16T21:25:28.638Z,0.17
2019-02-16T21:28:14.394Z,0.21
2019-02-16T21:31:00.141Z,0.26
2019-02-16T21:33:45.888Z,0.37
2019-02-16T21:36:31.577Z,0.29
2019-02-16T21:39:17.376Z,0.19
2019-02-16T21:42:03.322Z,0.08
2019-02-16T21:47:26.670Z,-0.04
2019-02-16T21:50:12.390Z,-0.31
2019-02-16T21:55:45.741Z,-0.21
2019-02-16T21:58:31.504Z,-0.02
2019-02-16T22:01:17.371Z,0.02
2019-02-16T22:04:03.247Z,-0.08
2019-02-16T22:06:49.189Z,0.01
2019-02-16T22:12:12.062Z,-0.10
2019-02-16T22:14:38.076Z,-0.27
2019-02-16T22:17:03.960Z,-0.23
2019-02-16T22:19:29.995Z,-0.15
2019-02-16T22:21:55.894Z,-0.33
2019-02-16T22:24:21.746Z,-0.38
2019-02-16T22:26:47.599Z,-0.34
2019-02-16T22:29:33.299Z,-0.30
2019-02-16T22:31:59.131Z,-0.30
2019-02-16T22:34:25.163Z,-0.38
2019-02-16T22:36:51.024Z,-0.63
2019-02-16T22:39:16.940Z,-0.62
2019-02-16T22:41:42.888Z,-0.60
2019-02-16T22:44:08.700Z,-0.69
2019-02-16T22:46:34.530Z,-0.59
2019-02-16T22:49:00.453Z,-0.45
2019-02-16T22:51:26.436Z,-0.44
2019-02-16T22:53:52.342Z,-0.57
2019-02-16T22:56:18.544Z,-0.72
2019-02-16T22:58:44.354Z,-1.03
2019-02-16T23:03:47.509Z,-0.99
2019-02-16T23:06:13.415Z,-1.13
2019-02-16T23:08:39.384Z,-1.25
2019-02-16T23:11:05.316Z,-1.35
2019-02-16T23:13:31.256Z,-1.17
2019-02-16T23:15:57.160Z,-1.08
2019-02-16T23:18:23.004Z,-1.12
2019-02-16T23:20:49.032Z,-1.06
2019-02-16T23:23:14.966Z,-1.10
2019-02-16T23:25:40.815Z,-1.30
2019-02-16T23:28:06.746Z,-1.16
2019-02-16T23:31:14.201Z,-1.17
2019-02-16T23:33:40.035Z,-1.01
2019-02-16T23:36:06.259Z,-0.90
2019-02-16T23:38:32.106Z,-0.99
2019-02-16T23:40:58.307Z,-1.19
2019-02-16T23:43:24.137Z,-1.46
2019-02-16T23:45:49.979Z,-1.39
2019-02-16T23:48:15.814Z,-1.15
2019-02-16T23:50:41.757Z,-1.31
2019-02-16T23:53:07.616Z,-1.28
2019-02-16T23:55:33.561Z,-1.22
2019-02-16T23:57:59.388Z,-1.29
